Time;durP1;ratioP1;P1;durP2;ratioP2;P2;SDS_P1;SDS_P2;PMS_P1;PMS_P2;Temp;Humidity;BMP_temperature;BMP_pressure;BME280_temperature;BME280_humidity;BME280_pressure;Samples;Min_cycle;Max_cycle;Signal;HPM_P1;HPM_P2
2022/08/12 00:42:55;;;;;;;;;;;;;;;;;;5058483;28;19955;-81
2022/08/12 00:45:20;;;;;;;;;;;;;;;;;;5052092;28;19972;-79
2022/08/12 00:47:45;;;;;;;;;;;;;;;;;;5052292;28;19919;-80
2022/08/12 00:50:17;;;;;;;;;;;;;;;;;;5052270;28;19917;-80
2022/08/12 00:52:43;;;;;;;;;;;;;;;;;;5052624;28;19944;-80
2022/08/12 00:55:08;;;;;;;;;;;;;;;;;;5052648;28;19967;-81
2022/08/12 00:57:37;;;;;;;;;;;;;;;;;;5052536;28;19917;-81
2022/08/12 01:00:07;;;;;;;;;;;;;;;;;;5052180;28;20024;-81
2022/08/12 01:02:33;;;;;;;;;;;;;;;;;;5052150;28;19967;-80
2022/08/12 01:13:17;;;;;;;;;;;;;;;;;;5052566;28;19962;-81
2022/08/12 01:15:43;;;;;;;;;;;;;;;;;;5052365;28;20330;-81
2022/08/12 01:18:08;;;;;;;;;;;;;;;;;;5052326;28;19935;-80
2022/08/12 01:20:54;;;;;;;;;;;;;;;;;;5052141;28;19927;-81
2022/08/12 01:23:19;;;;;;;;;;;;;;;;;;5052790;28;20009;-80
2022/08/12 01:25:45;;;;;;;;;;;;;;;;;;5053143;28;20351;-81
2022/08/12 01:28:12;;;;;;;;;;;;;;;;;;5052263;28;20278;-81
2022/08/12 01:30:38;;;;;;;;;;;;;;;;;;5052164;28;19916;-81
2022/08/12 01:33:04;;;;;;;;;;;;;;;;;;5051898;28;19920;-80
2022/08/12 01:35:30;;;;;;;;;;;;;;;;;;5051979;28;19916;-81
2022/08/12 01:38:01;;;;;;;;;;;;;;;;;;5053461;28;19916;-80
2022/08/12 01:40:27;;;;;;;;;;;;;;;;;;5055873;28;20379;-81
2022/08/12 01:42:54;;;;;;;;;;;;;;;;;;5055945;28;20015;-80
2022/08/12 01:45:23;;;;;;;;;;;;;;;;;;5055741;28;20410;-81
2022/08/12 01:48:03;;;;;;;;;;;;;;;;;;5056069;28;19952;-80
2022/08/12 01:50:38;;;;;;;;;;;;;;;;;;5057128;28;20325;-80
2022/08/12 01:53:11;;;;;;;;;;;;;;;;;;5056795;28;19935;-80
2022/08/12 01:55:40;;;;;;;;;;;;;;;;;;5055549;28;19963;-81
2022/08/12 01:58:15;;;;;;;;;;;;;;;;;;5055383;28;20386;-80
2022/08/12 02:00:50;;;;;;;;;;;;;;;;;;5056967;28;20047;-81
2022/08/12 02:03:18;;;;;;;;;;;;;;;;;;5055442;28;19913;-80
2022/08/12 02:11:29;;;;;;;;;;;;;;;;;;5055655;28;19924;-80
2022/08/12 02:14:12;;;;;;;;;;;;;;;;;;5055214;28;19928;-80
2022/08/12 02:16:40;;;;;;;;;;;;;;;;;;5056534;28;19936;-80
2022/08/12 02:19:28;;;;;;;;;;;;;;;;;;5056469;28;19975;-80
2022/08/12 02:21:58;;;;;;;;;;;;;;;;;;5037158;28;19913;-80
2022/08/12 02:24:23;;;;;;;;;;;;;;;;;;5054993;28;19916;-80
2022/08/12 02:26:49;;;;;;;;;;;;;;;;;;5055043;28;19913;-80
2022/08/12 02:29:14;;;;;;;;;;;;;;;;;;5056420;28;20287;-80
2022/08/12 02:31:44;;;;;;;;;;;;;;;;;;5056007;28;19917;-81
2022/08/12 02:34:11;;;;;;;;;;;;;;;;;;5054860;28;19984;-80
2022/08/12 02:36:36;;;;;;;;;;;;;;;;;;5054934;28;20260;-80
2022/08/12 02:39:02;;;;;;;;;;;;;;;;;;5054644;28;19936;-80
2022/08/12 02:41:27;;;;;;;;;;;;;;;;;;5054738;28;20359;-80
2022/08/12 02:43:58;;;;;;;;;;;;;;;;;;5054528;28;19924;-80
2022/08/12 02:46:31;;;;;;;;;;;;;;;;;;5054657;28;19913;-80
2022/08/12 02:48:58;;;;;;;;;;;;;;;;;;5053354;28;20364;-80
2022/08/12 02:51:24;;;;;;;;;;;;;;;;;;5054506;28;19917;-80
2022/08/12 02:53:50;;;;;;;;;;;;;;;;;;5054758;28;20352;-80
2022/08/12 02:56:16;;;;;;;;;;;;;;;;;;5054368;28;20008;-80
2022/08/12 02:58:42;;;;;;;;;;;;;;;;;;5054311;28;19917;-80
2022/08/12 03:01:10;;;;;;;;;;;;;;;;;;5054344;28;19924;-80
2022/08/12 03:03:36;;;;;;;;;;;;;;;;;;5055803;28;20352;-80
2022/08/12 03:06:05;;;;;;;;;;;;;;;;;;5054478;28;19913;-80
2022/08/12 03:08:34;;;;;;;;;;;;;;;;;;5055404;28;20048;-80
2022/08/12 03:11:03;;;;;;;;;;;;;;;;;;5055629;28;19952;-80
2022/08/12 03:13:28;;;;;;;;;;;;;;;;;;5055478;28;20262;-80
2022/08/12 03:15:54;;;;;;;;;;;;;;;;;;5054474;28;19969;-81
2022/08/12 03:18:22;;;;;;;;;;;;;;;;;;5053971;28;19936;-80
2022/08/12 03:20:47;;;;;;;;;;;;;;;;;;5053907;28;19916;-81
2022/08/12 03:23:14;;;;;;;;;;;;;;;;;;5054201;28;19924;-80
2022/08/12 03:25:40;;;;;;;;;;;;;;;;;;5054102;28;19959;-80
2022/08/12 03:28:07;;;;;;;;;;;;;;;;;;5055432;28;19921;-80
2022/08/12 03:30:32;;;;;;;;;;;;;;;;;;5054109;28;19913;-80
2022/08/12 03:32:58;;;;;;;;;;;;;;;;;;5053757;28;19917;-81
2022/08/12 03:35:27;;;;;;;;;;;;;;;;;;5053719;28;19912;-81
2022/08/12 03:37:55;;;;;;;;;;;;;;;;;;5055169;28;20020;-81
2022/08/12 04:02:13;;;;;;;;;;;;;;;;;;5053392;28;19971;-80
2022/08/12 04:04:43;;;;;;;;;;;;;;;;;;5054559;28;19916;-81
2022/08/12 04:07:09;;;;;;;;;;;;;;;;;;5053283;28;19912;-80
2022/08/12 04:09:37;;;;;;;;;;;;;;;;;;5053056;28;19912;-80
2022/08/12 04:14:46;;;;;;;;;;;;;;;;;;5053266;28;19970;-81
2022/08/12 04:17:12;;;;;;;;;;;;;;;;;;5053045;28;19939;-80
2022/08/12 04:19:37;;;;;;;;;;;;;;;;;;5053888;28;19971;-80
2022/08/12 04:22:02;;;;;;;;;;;;;;;;;;5053904;28;20351;-80
2022/08/12 04:24:27;;;;;;;;;;;;;;;;;;5052624;28;19967;-80
2022/08/12 04:26:53;;;;;;;;;;;;;;;;;;5054209;28;19924;-80
2022/08/12 04:29:19;;;;;;;;;;;;;;;;;;5052680;28;19920;-80
2022/08/12 04:31:44;;;;;;;;;;;;;;;;;;5053841;28;19913;-81
2022/08/12 04:34:10;;;;;;;;;;;;;;;;;;5053857;28;20029;-81
2022/08/12 04:36:36;;;;;;;;;;;;;;;;;;5053894;28;19917;-81
2022/08/12 04:39:02;;;;;;;;;;;;;;;;;;5053032;28;19924;-81
2022/08/12 04:41:27;;;;;;;;;;;;;;;;;;5053702;28;19936;-80
2022/08/12 04:43:53;;;;;;;;;;;;;;;;;;5054334;28;19931;-81
2022/08/12 04:46:19;;;;;;;;;;;;;;;;;;5052431;28;19913;-81
2022/08/12 04:48:45;;;;;;;;;;;;;;;;;;5053867;28;19936;-80
2022/08/12 04:51:10;;;;;;;;;;;;;;;;;;5052681;28;20284;-81
2022/08/12 04:53:35;;;;;;;;;;;;;;;;;;5052350;28;19912;-81
2022/08/12 04:56:01;;;;;;;;;;;;;;;;;;5052562;28;19917;-81
2022/08/12 04:58:27;;;;;;;;;;;;;;;;;;5052719;28;20007;-81
2022/08/12 05:00:52;;;;;;;;;;;;;;;;;;5052565;28;19913;-81
2022/08/12 05:03:17;;;;;;;;;;;;;;;;;;5052292;28;19916;-81
2022/08/12 05:05:43;;;;;;;;;;;;;;;;;;5052207;28;19912;-81
2022/08/12 05:08:12;;;;;;;;;;;;;;;;;;5052280;28;20282;-80
2022/08/12 05:10:37;;;;;;;;;;;;;;;;;;5052572;28;19913;-80
2022/08/12 05:13:10;;;;;;;;;;;;;;;;;;5051939;28;20287;-80
2022/08/12 05:15:39;;;;;;;;;;;;;;;;;;5052679;28;19916;-81
2022/08/12 05:18:04;;;;;;;;;;;;;;;;;;5052189;28;19919;-80
2022/08/12 05:20:29;;;;;;;;;;;;;;;;;;5052020;28;20015;-81
2022/08/12 05:23:24;;;;;;;;;;;;;;;;;;5052395;28;19913;-80
2022/08/12 05:25:50;;;;;;;;;;;;;;;;;;5044396;28;19944;-81
2022/08/12 05:28:16;;;;;;;;;;;;;;;;;;5052161;28;19916;-81
2022/08/12 05:30:42;;;;;;;;;;;;;;;;;;5068582;28;19924;-81
2022/08/12 05:33:08;;;;;;;;;;;;;;;;;;5052066;28;19917;-80
2022/08/12 05:35:41;;;;;;;;;;;;;;;;;;5053002;28;19924;-80
2022/08/12 05:40:51;;;;;;;;;;;;;;;;;;5053636;28;19923;-80
2022/08/12 05:43:16;;;;;;;;;;;;;;;;;;5054200;28;19921;-78
2022/08/12 05:45:42;;;;;;;;;;;;;;;;;;5052261;28;19925;-79
2022/08/12 05:48:07;;;;;;;;;;;;;;;;;;5053128;28;19998;-79
2022/08/12 05:50:34;;;;;;;;;;;;;;;;;;5054286;28;19944;-80
2022/08/12 05:53:00;;;;;;;;;;;;;;;;;;5070149;28;19948;-81
2022/08/12 05:55:26;;;;;;;;;;;;;;;;;;5053337;28;19917;-80
2022/08/12 05:57:54;;;;;;;;;;;;;;;;;;5052182;28;20409;-80
2022/08/12 06:00:21;;;;;;;;;;;;;;;;;;5051560;28;19917;-80
2022/08/12 06:02:46;;;;;;;;;;;;;;;;;;5053351;28;19917;-80
2022/08/12 06:05:12;;;;;;;;;;;;;;;;;;5052016;28;20347;-80
2022/08/12 06:07:44;;;;;;;;;;;;;;;;;;5053314;28;20372;-80
2022/08/12 06:10:10;;;;;;;;;;;;;;;;;;5068338;28;19923;-80
2022/08/12 06:12:35;;;;;;;;;;;;;;;;;;5053339;28;19913;-80
2022/08/12 06:15:00;;;;;;;;;;;;;;;;;;5054978;28;19970;-80
2022/08/12 06:17:26;;;;;;;;;;;;;;;;;;5053651;28;20007;-81
2022/08/12 06:19:51;;;;;;;;;;;;;;;;;;5068690;28;20016;-80
2022/08/12 06:22:16;;;;;;;;;;;;;;;;;;5068341;28;19917;-80
2022/08/12 06:24:41;;;;;;;;;;;;;;;;;;5052376;28;19913;-81
2022/08/12 06:27:07;;;;;;;;;;;;;;;;;;5055189;28;20287;-81
2022/08/12 06:29:34;;;;;;;;;;;;;;;;;;5055005;28;19983;-80
2022/08/12 06:31:59;;;;;;;;;;;;;;;;;;5071766;28;19924;-81
2022/08/12 06:34:35;;;;;;;;;;;;;;;;;;5056128;28;19917;-81
2022/08/12 06:37:00;;;;;;;;;;;;;;;;;;5056241;28;19971;-81
2022/08/12 06:39:25;;;;;;;;;;;;;;;;;;5055523;28;19956;-80
2022/08/12 06:44:34;;;;;;;;;;;;;;;;;;5067990;28;19930;-80
2022/08/12 06:47:00;;;;;;;;;;;;;;;;;;5058914;28;20286;-80
2022/08/12 06:49:27;;;;;;;;;;;;;;;;;;5060350;28;19912;-79
2022/08/12 06:51:54;;;;;;;;;;;;;;;;;;5075162;28;19923;-81
2022/08/12 06:54:19;;;;;;;;;;;;;;;;;;5058947;28;19912;-80
2022/08/12 06:56:45;;;;;;;;;;;;;;;;;;5076395;28;19999;-80
2022/08/12 06:59:13;;;;;;;;;;;;;;;;;;5076475;28;19921;-80
2022/08/12 07:01:38;;;;;;;;;;;;;;;;;;5074605;28;19921;-81
2022/08/12 07:04:04;;;;;;;;;;;;;;;;;;5074477;28;19976;-80
2022/08/12 07:06:29;;;;;;;;;;;;;;;;;;5058783;28;20350;-80
2022/08/12 07:08:54;;;;;;;;;;;;;;;;;;5058628;28;20331;-80
2022/08/12 07:11:20;;;;;;;;;;;;;;;;;;5058467;28;19920;-81
2022/08/12 07:13:49;;;;;;;;;;;;;;;;;;5052231;28;19920;-81
2022/08/12 07:16:18;;;;;;;;;;;;;;;;;;5071563;28;20355;-80
2022/08/12 07:18:46;;;;;;;;;;;;;;;;;;5057453;28;20267;-79
2022/08/12 07:21:41;;;;;;;;;;;;;;;;;;5059341;28;19913;-79
2022/08/12 07:24:15;;;;;;;;;;;;;;;;;;5068176;28;19940;-80
2022/08/12 07:26:40;;;;;;;;;;;;;;;;;;5061402;28;19920;-80
2022/08/12 07:29:09;;;;;;;;;;;;;;;;;;5074228;28;19923;-81
2022/08/12 07:31:38;;;;;;;;;;;;;;;;;;5057427;28;20367;-81
2022/08/12 07:34:04;;;;;;;;;;;;;;;;;;5059220;28;19963;-81
2022/08/12 07:36:29;;;;;;;;;;;;;;;;;;5073503;28;19963;-81
2022/08/12 07:38:54;;;;;;;;;;;;;;;;;;5075774;28;19931;-81
2022/08/12 07:41:21;;;;;;;;;;;;;;;;;;5058562;28;19923;-81
2022/08/12 07:43:47;;;;;;;;;;;;;;;;;;5057319;28;19916;-81
2022/08/12 07:46:14;;;;;;;;;;;;;;;;;;5056709;28;20283;-81
2022/08/12 07:48:43;;;;;;;;;;;;;;;;;;5056632;28;20396;-81
2022/08/12 07:51:09;;;;;;;;;;;;;;;;;;5056996;28;19912;-80
2022/08/12 07:53:34;;;;;;;;;;;;;;;;;;5057705;28;19979;-81
2022/08/12 07:56:00;;;;;;;;;;;;;;;;;;5056409;28;19958;-81
2022/08/12 07:58:25;;;;;;;;;;;;;;;;;;5056402;28;19966;-81
2022/08/12 08:00:52;;;;;;;;;;;;;;;;;;5056859;28;19912;-81
2022/08/12 08:03:17;;;;;;;;;;;;;;;;;;5056460;28;19978;-81
2022/08/12 08:05:45;;;;;;;;;;;;;;;;;;5056665;28;20359;-81
2022/08/12 08:08:28;;;;;;;;;;;;;;;;;;5062222;28;20003;-80
2022/08/12 08:12:52;;;;;;;;;;;;;;;;;;5085219;28;19917;-80
2022/08/12 08:13:41;;;;;;;;;;;;;;;;;;5060752;28;20353;-81
2022/08/12 08:16:07;;;;;;;;;;;;;;;;;;5056535;28;19956;-81
2022/08/12 08:18:32;;;;;;;;;;;;;;;;;;5056888;28;19997;-81
2022/08/12 08:20:58;;;;;;;;;;;;;;;;;;5056260;28;19916;-81
2022/08/12 08:24:13;;;;;;;;;;;;;;;;;;5056458;28;19912;-81
2022/08/12 08:26:09;;;;;;;;;;;;;;;;;;5058797;28;19942;-81
2022/08/12 08:28:35;;;;;;;;;;;;;;;;;;5056463;28;20305;-81
2022/08/12 08:31:00;;;;;;;;;;;;;;;;;;5056356;28;20347;-81
2022/08/12 08:33:26;;;;;;;;;;;;;;;;;;5056030;28;19958;-81
2022/08/12 08:35:52;;;;;;;;;;;;;;;;;;5057708;28;19962;-81
2022/08/12 08:38:17;;;;;;;;;;;;;;;;;;5056750;28;19913;-81
2022/08/12 08:43:27;;;;;;;;;;;;;;;;;;5059563;28;19935;-81
2022/08/12 08:45:56;;;;;;;;;;;;;;;;;;5056057;28;20326;-81
2022/08/12 08:48:24;;;;;;;;;;;;;;;;;;5055593;28;19923;-80
2022/08/12 08:50:50;;;;;;;;;;;;;;;;;;5056756;28;20007;-81
2022/08/12 08:53:15;;;;;;;;;;;;;;;;;;5055829;28;19947;-81
2022/08/12 08:55:41;;;;;;;;;;;;;;;;;;5056531;28;19912;-81
2022/08/12 08:58:07;;;;;;;;;;;;;;;;;;5055993;28;19912;-81
2022/08/12 09:00:33;;;;;;;;;;;;;;;;;;5072687;28;19928;-81
2022/08/12 09:03:02;;;;;;;;;;;;;;;;;;5056061;28;19912;-81
2022/08/12 09:05:28;;;;;;;;;;;;;;;;;;5075144;28;19916;-81
2022/08/12 09:07:55;;;;;;;;;;;;;;;;;;5056193;28;19919;-81
2022/08/12 09:10:20;;;;;;;;;;;;;;;;;;5074816;28;20317;-81
2022/08/12 09:15:30;;;;;;;;;;;;;;;;;;5059355;28;19966;-81
2022/08/12 09:17:56;;;;;;;;;;;;;;;;;;5056410;28;20366;-81
2022/08/12 09:20:22;;;;;;;;;;;;;;;;;;5056887;28;20007;-82
2022/08/12 09:22:48;;;;;;;;;;;;;;;;;;5039646;28;19916;-82
2022/08/12 09:25:13;;;;;;;;;;;;;;;;;;5074341;28;20382;-81
2022/08/12 09:27:38;;;;;;;;;;;;;;;;;;5056792;28;19917;-80
2022/08/12 09:30:05;;;;;;;;;;;;;;;;;;5072061;28;19917;-81
2022/08/12 09:32:30;;;;;;;;;;;;;;;;;;5055287;28;19913;-81
2022/08/12 09:34:56;;;;;;;;;;;;;;;;;;5055473;28;19917;-81
2022/08/12 09:37:25;;;;;;;;;;;;;;;;;;5056827;28;20379;-80
2022/08/12 09:39:52;;;;;;;;;;;;;;;;;;5073172;28;20007;-81
2022/08/12 09:45:21;;;;;;;;;;;;;;;;;;5057854;28;19978;-81
2022/08/12 09:47:46;;;;;;;;;;;;;;;;;;5058660;28;20506;-81
2022/08/12 09:50:12;;;;;;;;;;;;;;;;;;5055612;28;19963;-81
2022/08/12 09:52:37;;;;;;;;;;;;;;;;;;5057915;28;19916;-81
2022/08/12 09:55:04;;;;;;;;;;;;;;;;;;5072319;28;19917;-81
2022/08/12 09:57:29;;;;;;;;;;;;;;;;;;5055227;28;20371;-81
2022/08/12 09:59:55;;;;;;;;;;;;;;;;;;5059078;28;20003;-81
2022/08/12 10:02:22;;;;;;;;;;;;;;;;;;5059648;28;19925;-81
2022/08/12 10:04:47;;;;;;;;;;;;;;;;;;5075983;28;19920;-81
2022/08/12 10:07:13;;;;;;;;;;;;;;;;;;5059340;28;19919;-81
2022/08/12 10:09:38;;;;;;;;;;;;;;;;;;5059104;28;20006;-81
2022/08/12 10:14:47;;;;;;;;;;;;;;;;;;5064534;28;19930;-81
2022/08/12 10:17:13;;;;;;;;;;;;;;;;;;5062413;28;19960;-81
2022/08/12 10:19:38;;;;;;;;;;;;;;;;;;5060786;28;20011;-81
2022/08/12 10:22:04;;;;;;;;;;;;;;;;;;5060036;28;19912;-80
2022/08/12 10:24:30;;;;;;;;;;;;;;;;;;5059701;28;19919;-80
2022/08/12 10:29:41;;;;;;;;;;;;;;;;;;5077564;28;19940;-79
2022/08/12 10:32:08;;;;;;;;;;;;;;;;;;5077276;28;19924;-80
2022/08/12 10:34:33;;;;;;;;;;;;;;;;;;5058738;28;20007;-81
2022/08/12 10:36:59;;;;;;;;;;;;;;;;;;5058827;28;19951;-81
2022/08/12 10:39:25;;;;;;;;;;;;;;;;;;5075538;28;19978;-81
2022/08/12 10:44:59;;;;;;;;;;;;;;;;;;5014447;28;19926;-81
2022/08/12 10:47:25;;;;;;;;;;;;;;;;;;4995614;28;20009;-81
2022/08/12 10:49:51;;;;;;;;;;;;;;;;;;5041459;28;19917;-83
2022/08/12 10:52:17;;;;;;;;;;;;;;;;;;5058727;28;20020;-81
2022/08/12 10:54:45;;;;;;;;;;;;;;;;;;5059565;28;19913;-80
2022/08/12 10:57:10;;;;;;;;;;;;;;;;;;5065782;28;19971;-81
2022/08/12 10:59:35;;;;;;;;;;;;;;;;;;5070798;28;19921;-78
2022/08/12 11:02:01;;;;;;;;;;;;;;;;;;5080982;28;20244;-79
2022/08/12 11:04:28;;;;;;;;;;;;;;;;;;5060468;28;20321;-78
2022/08/12 11:06:54;;;;;;;;;;;;;;;;;;5063245;28;19920;-79
2022/08/12 11:09:32;;;;;;;;;;;;;;;;;;5077944;28;19959;-78
2022/08/12 11:12:05;;;;;;;;;;;;;;;;;;5072330;28;20331;-78
2022/08/12 11:14:34;;;;;;;;;;;;;;;;;;5056401;28;19938;-78
2022/08/12 11:17:00;;;;;;;;;;;;;;;;;;5061351;28;20375;-78
2022/08/12 11:19:26;;;;;;;;;;;;;;;;;;5061827;28;19916;-78
2022/08/12 11:21:53;;;;;;;;;;;;;;;;;;5060583;28;19913;-78
2022/08/12 11:24:18;;;;;;;;;;;;;;;;;;5063193;28;19917;-78
2022/08/12 11:26:43;;;;;;;;;;;;;;;;;;5059942;28;19912;-78
2022/08/12 11:29:09;;;;;;;;;;;;;;;;;;5075912;28;20294;-78
2022/08/12 11:31:34;;;;;;;;;;;;;;;;;;5059327;28;19913;-78
2022/08/12 11:33:59;;;;;;;;;;;;;;;;;;5075253;28;19916;-78
2022/08/12 11:36:24;;;;;;;;;;;;;;;;;;5058809;28;19966;-78
2022/08/12 11:38:50;;;;;;;;;;;;;;;;;;5057637;28;20232;-78
2022/08/12 11:41:15;;;;;;;;;;;;;;;;;;5057767;28;19944;-78
2022/08/12 11:43:41;;;;;;;;;;;;;;;;;;5052302;28;19916;-78
2022/08/12 11:46:06;;;;;;;;;;;;;;;;;;5072478;28;19951;-78
2022/08/12 11:48:35;;;;;;;;;;;;;;;;;;5076272;28;19932;-78
2022/08/12 11:51:01;;;;;;;;;;;;;;;;;;5058419;28;19912;-78
2022/08/12 11:53:26;;;;;;;;;;;;;;;;;;5057764;28;19939;-78
2022/08/12 11:55:51;;;;;;;;;;;;;;;;;;5054072;28;20004;-78
2022/08/12 11:58:16;;;;;;;;;;;;;;;;;;5075434;28;20379;-79
2022/08/12 12:00:42;;;;;;;;;;;;;;;;;;5075047;28;19967;-78
2022/08/12 12:03:07;;;;;;;;;;;;;;;;;;5064085;28;19916;-78
2022/08/12 12:05:32;;;;;;;;;;;;;;;;;;5073789;28;19917;-78
2022/08/12 12:07:58;;;;;;;;;;;;;;;;;;5057805;28;19916;-79
2022/08/12 12:10:23;;;;;;;;;;;;;;;;;;5058198;28;19952;-79
2022/08/12 12:12:48;;;;;;;;;;;;;;;;;;5067945;28;19921;-80
2022/08/12 12:15:13;;;;;;;;;;;;;;;;;;5079583;28;19921;-79
2022/08/12 12:17:39;;;;;;;;;;;;;;;;;;5086765;28;19978;-78
2022/08/12 12:20:08;;;;;;;;;;;;;;;;;;5070801;28;19921;-79
2022/08/12 12:22:34;;;;;;;;;;;;;;;;;;5052045;28;19913;-79
2022/08/12 12:24:59;;;;;;;;;;;;;;;;;;5076071;28;20026;-80
2022/08/12 12:27:25;;;;;;;;;;;;;;;;;;5059779;28;19916;-79
2022/08/12 12:29:50;;;;;;;;;;;;;;;;;;5074462;28;19912;-79
2022/08/12 12:32:15;;;;;;;;;;;;;;;;;;5077376;28;20006;-77
2022/08/12 12:34:41;;;;;;;;;;;;;;;;;;5067644;28;20417;-79
2022/08/12 12:37:15;;;;;;;;;;;;;;;;;;5056603;28;20365;-80
2022/08/12 12:39:42;;;;;;;;;;;;;;;;;;5070967;28;19975;-79
2022/08/12 12:42:07;;;;;;;;;;;;;;;;;;5075125;28;19947;-77
2022/08/12 12:44:32;;;;;;;;;;;;;;;;;;5076163;28;19924;-78
2022/08/12 12:46:58;;;;;;;;;;;;;;;;;;5060397;28;20448;-78
2022/08/12 12:49:23;;;;;;;;;;;;;;;;;;5088635;28;19916;-78
2022/08/12 12:51:49;;;;;;;;;;;;;;;;;;5077353;28;19912;-78
2022/08/12 12:54:14;;;;;;;;;;;;;;;;;;5088066;28;19955;-79
2022/08/12 12:56:40;;;;;;;;;;;;;;;;;;5073190;28;19916;-77
2022/08/12 12:59:06;;;;;;;;;;;;;;;;;;5071333;28;20324;-77
2022/08/12 13:01:32;;;;;;;;;;;;;;;;;;5070015;28;20046;-77
2022/08/12 13:03:58;;;;;;;;;;;;;;;;;;5094609;28;19921;-77
2022/08/12 13:06:28;;;;;;;;;;;;;;;;;;5071445;28;19917;-78
2022/08/12 13:08:57;;;;;;;;;;;;;;;;;;5065165;28;19913;-78
2022/08/12 13:11:23;;;;;;;;;;;;;;;;;;5069821;28;20363;-79
2022/08/12 13:13:49;;;;;;;;;;;;;;;;;;5075140;28;20010;-79
2022/08/12 13:16:20;;;;;;;;;;;;;;;;;;5075982;28;19970;-79
2022/08/12 13:18:49;;;;;;;;;;;;;;;;;;5068268;28;20366;-78
2022/08/12 13:21:17;;;;;;;;;;;;;;;;;;5056784;28;19919;-78
2022/08/12 13:23:44;;;;;;;;;;;;;;;;;;5070261;28;19923;-79
2022/08/12 13:26:10;;;;;;;;;;;;;;;;;;5092647;28;19912;-79
2022/08/12 13:28:35;;;;;;;;;;;;;;;;;;5047594;28;20321;-79
2022/08/12 13:31:01;;;;;;;;;;;;;;;;;;5070205;28;19920;-79
2022/08/12 13:33:26;;;;;;;;;;;;;;;;;;5064718;28;20319;-79
2022/08/12 13:36:02;;;;;;;;;;;;;;;;;;5059808;28;20017;-79
2022/08/12 13:38:43;;;;;;;;;;;;;;;;;;5080187;28;19920;-80
2022/08/12 13:41:12;;;;;;;;;;;;;;;;;;5080182;28;20354;-80
2022/08/12 13:43:38;;;;;;;;;;;;;;;;;;5080314;28;20417;-79
2022/08/12 13:46:08;;;;;;;;;;;;;;;;;;5067961;28;19920;-79
2022/08/12 13:48:34;;;;;;;;;;;;;;;;;;5077506;28;19917;-79
2022/08/12 13:51:00;;;;;;;;;;;;;;;;;;5072502;28;19940;-79
2022/08/12 13:53:25;;;;;;;;;;;;;;;;;;5097222;28;20378;-78
2022/08/12 13:55:50;;;;;;;;;;;;;;;;;;5082073;28;20005;-78
2022/08/12 13:58:17;;;;;;;;;;;;;;;;;;5092710;28;19983;-79
2022/08/12 14:00:45;;;;;;;;;;;;;;;;;;5060213;28;19916;-78
2022/08/12 14:03:14;;;;;;;;;;;;;;;;;;5059497;28;20339;-78
2022/08/12 14:05:40;;;;;;;;;;;;;;;;;;5077228;28;19938;-78
2022/08/12 14:08:06;;;;;;;;;;;;;;;;;;5076774;28;19981;-78
2022/08/12 14:10:35;;;;;;;;;;;;;;;;;;5058948;28;19947;-77
2022/08/12 14:13:05;;;;;;;;;;;;;;;;;;5059474;28;19955;-78
2022/08/12 14:15:34;;;;;;;;;;;;;;;;;;5042330;28;19952;-78
2022/08/12 14:18:09;;;;;;;;;;;;;;;;;;5059333;28;19916;-78
2022/08/12 14:20:34;;;;;;;;;;;;;;;;;;5075470;28;20019;-78
2022/08/12 14:23:00;;;;;;;;;;;;;;;;;;5058791;28;20389;-78
2022/08/12 14:25:27;;;;;;;;;;;;;;;;;;5092256;28;19920;-80
2022/08/12 14:27:54;;;;;;;;;;;;;;;;;;5059097;28;20006;-80
2022/08/12 14:30:19;;;;;;;;;;;;;;;;;;5061477;28;20279;-79
2022/08/12 14:32:44;;;;;;;;;;;;;;;;;;5041600;28;19924;-79
2022/08/12 14:35:09;;;;;;;;;;;;;;;;;;5058523;28;19923;-78
2022/08/12 14:37:38;;;;;;;;;;;;;;;;;;5091891;28;20282;-78
2022/08/12 14:40:04;;;;;;;;;;;;;;;;;;5041604;28;20050;-79
2022/08/12 14:42:29;;;;;;;;;;;;;;;;;;5076105;28;19974;-78
2022/08/12 14:44:56;;;;;;;;;;;;;;;;;;5075710;28;19925;-77
2022/08/12 14:47:21;;;;;;;;;;;;;;;;;;5076388;28;19916;-77
2022/08/12 14:49:47;;;;;;;;;;;;;;;;;;5076496;28;19970;-78
2022/08/12 14:52:12;;;;;;;;;;;;;;;;;;5093089;28;19960;-78
2022/08/12 14:54:38;;;;;;;;;;;;;;;;;;5092478;28;20437;-77
2022/08/12 14:57:05;;;;;;;;;;;;;;;;;;5116707;28;19915;-78
2022/08/12 15:02:19;;;;;;;;;;;;;;;;;;5085882;28;19947;-77
2022/08/12 15:04:44;;;;;;;;;;;;;;;;;;5099707;28;20002;-78
2022/08/12 15:07:12;;;;;;;;;;;;;;;;;;5117273;28;19947;-78
2022/08/12 15:09:38;;;;;;;;;;;;;;;;;;5115512;28;20289;-78
2022/08/12 15:12:04;;;;;;;;;;;;;;;;;;5099098;28;19912;-78
2022/08/12 15:14:30;;;;;;;;;;;;;;;;;;5116551;28;20263;-78
2022/08/12 15:16:55;;;;;;;;;;;;;;;;;;5098097;28;20065;-78
2022/08/12 15:19:20;;;;;;;;;;;;;;;;;;5098091;28;19927;-78
2022/08/12 15:21:45;;;;;;;;;;;;;;;;;;5115959;28;20022;-78
2022/08/12 15:24:11;;;;;;;;;;;;;;;;;;5116131;28;19915;-77
2022/08/12 15:26:37;;;;;;;;;;;;;;;;;;5115817;28;19923;-78
2022/08/12 15:29:04;;;;;;;;;;;;;;;;;;5116452;28;20299;-78
2022/08/12 15:31:29;;;;;;;;;;;;;;;;;;5098110;28;19912;-78
2022/08/12 15:33:55;;;;;;;;;;;;;;;;;;5115626;28;20023;-78
2022/08/12 15:36:21;;;;;;;;;;;;;;;;;;5115736;28;19920;-78
2022/08/12 15:38:46;;;;;;;;;;;;;;;;;;5084829;28;20409;-78
2022/08/12 15:41:13;;;;;;;;;;;;;;;;;;5076013;28;19959;-78
2022/08/12 15:43:39;;;;;;;;;;;;;;;;;;5091307;28;19924;-78
2022/08/12 15:46:08;;;;;;;;;;;;;;;;;;5077450;28;20294;-78
2022/08/12 15:48:33;;;;;;;;;;;;;;;;;;5091100;28;20376;-79
2022/08/12 15:50:59;;;;;;;;;;;;;;;;;;5094542;28;19916;-78
2022/08/12 15:56:09;;;;;;;;;;;;;;;;;;5085863;28;19927;-79
2022/08/12 15:58:40;;;;;;;;;;;;;;;;;;5094686;28;19916;-78
2022/08/12 16:01:12;;;;;;;;;;;;;;;;;;5076188;28;21295;-78
2022/08/12 16:03:37;;;;;;;;;;;;;;;;;;5077459;28;19912;-78
2022/08/12 16:06:03;;;;;;;;;;;;;;;;;;5095056;28;19978;-79
2022/08/12 16:08:41;;;;;;;;;;;;;;;;;;5060207;28;19962;-79
2022/08/12 16:11:06;;;;;;;;;;;;;;;;;;5094994;28;19916;-77
2022/08/12 16:13:32;;;;;;;;;;;;;;;;;;5094848;28;20328;-78
2022/08/12 16:16:01;;;;;;;;;;;;;;;;;;5095526;28;19920;-77
2022/08/12 16:18:27;;;;;;;;;;;;;;;;;;5077502;28;19919;-77
2022/08/12 16:20:52;;;;;;;;;;;;;;;;;;5059496;28;19920;-77
2022/08/12 16:23:17;;;;;;;;;;;;;;;;;;5078366;28;19970;-77
2022/08/12 16:25:43;;;;;;;;;;;;;;;;;;5077206;28;19979;-77
2022/08/12 16:28:08;;;;;;;;;;;;;;;;;;5077028;28;19922;-77
2022/08/12 16:30:35;;;;;;;;;;;;;;;;;;5076387;28;19956;-77
2022/08/12 16:33:13;;;;;;;;;;;;;;;;;;5076954;28;19919;-78
2022/08/12 16:35:39;;;;;;;;;;;;;;;;;;5077616;28;19916;-77
2022/08/12 16:38:05;;;;;;;;;;;;;;;;;;5076517;28;19912;-77
2022/08/12 16:40:30;;;;;;;;;;;;;;;;;;5095469;28;19965;-77
2022/08/12 16:42:56;;;;;;;;;;;;;;;;;;5094596;28;19916;-77
2022/08/12 16:45:23;;;;;;;;;;;;;;;;;;5075920;28;20383;-77
2022/08/12 16:47:49;;;;;;;;;;;;;;;;;;5076217;28;20014;-77
2022/08/12 16:50:14;;;;;;;;;;;;;;;;;;5059433;28;20414;-77
2022/08/12 16:52:40;;;;;;;;;;;;;;;;;;5093810;28;19923;-78
2022/08/12 16:55:08;;;;;;;;;;;;;;;;;;5075953;28;19961;-78
2022/08/12 16:57:35;;;;;;;;;;;;;;;;;;5059344;28;19912;-78
2022/08/12 17:00:01;;;;;;;;;;;;;;;;;;5059074;28;20010;-78
2022/08/12 17:02:29;;;;;;;;;;;;;;;;;;5076118;28;20312;-77
2022/08/12 17:04:54;;;;;;;;;;;;;;;;;;5059458;28;20294;-78
2022/08/12 17:07:20;;;;;;;;;;;;;;;;;;5058859;28;19928;-78
2022/08/12 17:09:48;;;;;;;;;;;;;;;;;;5093137;28;19923;-78
2022/08/12 17:12:14;;;;;;;;;;;;;;;;;;5075475;28;19916;-78
2022/08/12 17:14:39;;;;;;;;;;;;;;;;;;5075526;28;19973;-78
2022/08/12 17:17:04;;;;;;;;;;;;;;;;;;5093471;28;20329;-78
2022/08/12 17:19:30;;;;;;;;;;;;;;;;;;5075516;28;19983;-78
2022/08/12 17:21:56;;;;;;;;;;;;;;;;;;5075502;28;19959;-77
2022/08/12 17:24:22;;;;;;;;;;;;;;;;;;5075623;28;19916;-77
2022/08/12 17:26:47;;;;;;;;;;;;;;;;;;5075634;28;20417;-78
2022/08/12 17:29:13;;;;;;;;;;;;;;;;;;5075760;28;19912;-78
2022/08/12 17:31:38;;;;;;;;;;;;;;;;;;5075583;28;19982;-78
2022/08/12 17:34:04;;;;;;;;;;;;;;;;;;5075097;28;19920;-77
2022/08/12 17:36:30;;;;;;;;;;;;;;;;;;5093203;28;19935;-78
2022/08/12 17:38:55;;;;;;;;;;;;;;;;;;5075075;28;19977;-78
2022/08/12 17:41:21;;;;;;;;;;;;;;;;;;5075622;28;20290;-80
2022/08/12 17:43:51;;;;;;;;;;;;;;;;;;5057923;28;19916;-78
2022/08/12 17:46:17;;;;;;;;;;;;;;;;;;5093402;28;19916;-78
2022/08/12 17:48:43;;;;;;;;;;;;;;;;;;5075307;28;20333;-76
2022/08/12 17:51:11;;;;;;;;;;;;;;;;;;5075307;28;19920;-76
2022/08/12 17:53:36;;;;;;;;;;;;;;;;;;5058965;28;19916;-76
2022/08/12 17:56:02;;;;;;;;;;;;;;;;;;5058453;28;20006;-76
2022/08/12 17:58:30;;;;;;;;;;;;;;;;;;5059280;28;19996;-77
2022/08/12 18:00:56;;;;;;;;;;;;;;;;;;5058565;28;20002;-77
2022/08/12 18:03:22;;;;;;;;;;;;;;;;;;5074912;28;19943;-77
2022/08/12 18:05:47;;;;;;;;;;;;;;;;;;5074946;28;19977;-79
2022/08/12 18:08:14;;;;;;;;;;;;;;;;;;5058553;28;19919;-76
2022/08/12 18:13:28;;;;;;;;;;;;;;;;;;5078128;28;20274;-76
2022/08/12 18:15:53;;;;;;;;;;;;;;;;;;5058956;28;19965;-76
2022/08/12 18:18:19;;;;;;;;;;;;;;;;;;5058688;28;20006;-77
2022/08/12 18:20:45;;;;;;;;;;;;;;;;;;5077997;28;19916;-77
2022/08/12 18:23:10;;;;;;;;;;;;;;;;;;5079316;28;19912;-76
2022/08/12 18:28:20;;;;;;;;;;;;;;;;;;5081877;28;19922;-76
2022/08/12 18:30:46;;;;;;;;;;;;;;;;;;5097803;28;19916;-77
2022/08/12 18:33:12;;;;;;;;;;;;;;;;;;5079108;28;19977;-77
2022/08/12 18:35:37;;;;;;;;;;;;;;;;;;5081195;28;19950;-77
2022/08/12 18:38:03;;;;;;;;;;;;;;;;;;5063378;28;19912;-76